Naniwa Maru No.21 — JG5648 — position and weather

sailwx.info

Track history (hours):
 
Tides and Currents Weather Stations Pressure Air Temp Water Temp Dewpoint Dewpoint Depression Visibility Wind Speed Wind Dir Waves Ship Positions

Naniwa Maru No.21

Last reported at 2014-Aug-02 01:19 UTC. Time now 2014-Aug-02 08:38 UTC.
Position N 33°48' E 130°22'.

Length 71 m; draft 5.2 m.

Type: Tanker. MMSI: 431301595.

Date/timePositionNaut miles runAvg speedWind from/ knotsBaromVisibWave heightAir tempDewpointWater temp
2014-Aug-02 01:19N 33°48' E 130°22'  
2014-Jul-28 02:20N 33°48' E 130°22'911.6
2014-Jul-28 01:33N 33°39' E 130°18'5 5.2
2014-Jul-28 00:32N 33°36' E 130°23'0 0.0
2014-Jul-27 23:32N 33°36' E 130°23'0 0.0
2014-Jul-27 22:32N 33°36' E 130°23'2 1.6
2014-Jul-27 21:32N 33°37' E 130°21'0 0.0
2014-Jul-27 20:33N 33°37' E 130°21'0 0.0
2014-Jul-27 19:33N 33°37' E 130°21'0 0.0
2014-Jul-27 18:32N 33°37' E 130°21'0 0.0
2014-Jul-27 17:32N 33°37' E 130°21'0 0.0
2014-Jul-27 16:33N 33°37' E 130°21'0 0.0
2014-Jul-27 15:33N 33°37' E 130°21'0 0.0
2014-Jul-27 14:32N 33°37' E 130°21'0 0.0
2014-Jul-27 13:33N 33°37' E 130°21'0 0.0
2014-Jul-27 12:32N 33°37' E 130°21'0 0.0
2014-Jul-27 11:33N 33°37' E 130°21'0 0.0
2014-Jul-27 10:33N 33°37' E 130°21'4 3.7
2014-Jul-27 09:33N 33°39' E 130°18'1312.5
2014-Jul-27 08:33N 33°52' E 130°21'  
2014-Jul-24 07:21N 34°07' E 135°04'1 0.3
2014-Jul-24 02:33N 34°08' E 135°05'  
Track history (hours):
 
Tides and Currents Weather Stations Pressure Air Temp Water Temp Dewpoint Dewpoint Depression Visibility Wind Speed Wind Dir Waves Ship Positions

Naniwa Maru No.21

Last reported at 2014-Aug-02 01:19 UTC. Time now 2014-Aug-02 08:38 UTC.
Position N 33°48' E 130°22'.

Length 71 m; draft 5.2 m.

Type: Tanker. MMSI: 431301595.

Date/timePositionNaut miles runAvg speedWind from/ knotsBaromVisibWave heightAir tempDewpointWater temp
2014-Aug-02 01:19N 33°48' E 130°22'  
2014-Jul-28 02:20N 33°48' E 130°22'911.6
2014-Jul-28 01:33N 33°39' E 130°18'5 5.2
2014-Jul-28 00:32N 33°36' E 130°23'0 0.0
2014-Jul-27 23:32N 33°36' E 130°23'0 0.0
2014-Jul-27 22:32N 33°36' E 130°23'2 1.6
2014-Jul-27 21:32N 33°37' E 130°21'0 0.0
2014-Jul-27 20:33N 33°37' E 130°21'0 0.0
2014-Jul-27 19:33N 33°37' E 130°21'0 0.0
2014-Jul-27 18:32N 33°37' E 130°21'0 0.0
2014-Jul-27 17:32N 33°37' E 130°21'0 0.0
2014-Jul-27 16:33N 33°37' E 130°21'0 0.0
2014-Jul-27 15:33N 33°37' E 130°21'0 0.0
2014-Jul-27 14:32N 33°37' E 130°21'0 0.0
2014-Jul-27 13:33N 33°37' E 130°21'0 0.0
2014-Jul-27 12:32N 33°37' E 130°21'0 0.0
2014-Jul-27 11:33N 33°37' E 130°21'0 0.0
2014-Jul-27 10:33N 33°37' E 130°21'4 3.7
2014-Jul-27 09:33N 33°39' E 130°18'1312.5
2014-Jul-27 08:33N 33°52' E 130°21'  
2014-Jul-24 07:21N 34°07' E 135°04'1 0.3
2014-Jul-24 02:33N 34°08' E 135°05'  

Dump ship's entire track history